MSC Poh Lin — H8FC — position and weather

sailwx.info

Track history (hours):
 
Tides and Currents Weather Stations Pressure Air Temp Water Temp Dewpoint Dewpoint Depression Visibility Wind Speed Wind Dir Waves Ship Positions

MSC Poh Lin

Last reported at 2014-Jul-09 22:29 UTC. Time now 2014-Jul-25 06:44 UTC.
Position N 35°57' W 015°31'.
Warning: this ship's position is 15 days out of date.

Length 294 m; draft 12.9 m.

Type: Ship (hazmat cat A). MMSI: 357405000.

Date/timePositionNaut miles runAvg speedWind from/ knotsBaromVisibWave heightAir tempDewpointWater temp
2014-Jul-09 22:29N 35°57' W 015°31'5317.5
2014-Jul-09 19:26N 36°16' W 014°29'23218.8
2014-Jul-09 07:08N 37°35' W 009°56'1719.4
2014-Jul-09 06:15N 37°42' W 009°37'1419.5
2014-Jul-09 05:33N 37°46' W 009°20'1918.8
2014-Jul-09 04:33N 37°53' W 008°58'7 6.6
2014-Jul-09 03:33N 37°56' W 008°51'0 0.0
2014-Jul-09 02:33N 37°56' W 008°51'0 0.0
2014-Jul-09 01:33N 37°56' W 008°51'0 0.0
2014-Jul-09 00:33N 37°56' W 008°51'0 0.0
2014-Jul-08 23:33N 37°56' W 008°51'0 0.0
2014-Jul-08 22:33N 37°56' W 008°51'0 0.0
2014-Jul-08 21:33N 37°56' W 008°51'0 0.0
2014-Jul-08 20:33N 37°56' W 008°51'0 0.0
2014-Jul-08 19:33N 37°56' W 008°51'0 0.0
2014-Jul-08 18:30N 37°56' W 008°51'0 0.0
2014-Jul-08 17:33N 37°56' W 008°51'0 0.0
2014-Jul-08 16:33N 37°56' W 008°51'0 0.0
2014-Jul-08 15:33N 37°56' W 008°51'0 0.0
2014-Jul-08 14:30N 37°56' W 008°51'0 0.0
2014-Jul-08 13:33N 37°56' W 008°51'0 0.0
2014-Jul-08 12:33N 37°56' W 008°51'0 0.4
2014-Jul-08 11:33N 37°56' W 008°50'4 3.1
2014-Jul-08 10:22N 37°52' W 008°53'7 8.5
2014-Jul-08 09:33N 37°46' W 008°55'1818.0
2014-Jul-08 08:33N 37°29' W 009°04'2020.1
2014-Jul-08 07:33N 37°11' W 009°15'2518.6
2014-Jul-08 06:13N 36°46' W 009°12'1420.9
2014-Jul-08 05:33N 36°40' W 008°57'2221.4
2014-Jul-08 04:33N 36°33' W 008°31'2521.6
2014-Jul-08 03:24N 36°25' W 008°02'12720.3
2014-Jul-07 21:08N 36°00' W 005°27'25019.9
2014-Jul-07 08:33N 37°32' W 000°37'2322.6
2014-Jul-07 07:33N 37°50' W 000°19'2822.9
2014-Jul-07 06:19N 38°13' E 000°01'2223.2
2014-Jul-07 05:21N 38°32' E 000°17'2023.3
2014-Jul-07 04:30N 38°50' E 000°27'4820.9
2014-Jul-07 02:13N 39°25' W 000°16'3 4.7
2014-Jul-07 01:33N 39°26' W 000°20'0 0.0
2014-Jul-07 00:30N 39°26' W 000°20'0 0.0
2014-Jul-06 23:33N 39°26' W 000°20'0 0.0
2014-Jul-06 22:33N 39°26' W 000°20'0 0.0
2014-Jul-06 21:33N 39°26' W 000°20'0 0.0
2014-Jul-06 20:33N 39°26' W 000°20'0 0.0
2014-Jul-06 19:33N 39°26' W 000°20'0 0.0
2014-Jul-06 18:30N 39°26' W 000°20'0 0.0
2014-Jul-06 17:12N 39°26' W 000°20'0 0.0
2014-Jul-06 16:30N 39°26' W 000°20'0 0.0
2014-Jul-06 15:33N 39°26' W 000°20'0 0.0
2014-Jul-06 14:28N 39°26' W 000°20'0 0.0
2014-Jul-06 13:32N 39°26' W 000°20'0 0.0
2014-Jul-06 12:32N 39°26' W 000°20'0 0.0
2014-Jul-06 11:32N 39°26' W 000°20'0 0.0
2014-Jul-06 10:32N 39°26' W 000°20'0 0.0
2014-Jul-06 09:32N 39°26' W 000°20'0 0.0
2014-Jul-06 08:32N 39°26' W 000°20'0 0.0
2014-Jul-06 07:26N 39°26' W 000°20'0 0.0
2014-Jul-06 06:20N 39°26' W 000°20'0 0.0
2014-Jul-06 05:32N 39°26' W 000°20'0 0.0
2014-Jul-06 04:32N 39°26' W 000°20'0 0.0
2014-Jul-06 03:32N 39°26' W 000°20'0 0.1
2014-Jul-06 02:33N 39°26' W 000°19'3 3.0
2014-Jul-06 01:33N 39°24' W 000°16'1 0.7
2014-Jul-06 00:32N 39°24' W 000°17'0 0.0
2014-Jul-05 23:26N 39°24' W 000°17'0 0.1
2014-Jul-05 21:32N 39°24' W 000°17'0 0.0
2014-Jul-05 15:33N 39°24' W 000°17'7 6.7
2014-Jul-05 14:33N 39°20' W 000°11'1312.8
2014-Jul-05 13:33N 39°10' W 000°00'1312.8
2014-Jul-05 12:33N 38°60' E 000°10'1312.6
2014-Jul-05 11:33N 38°50' E 000°21'1410.7
2014-Jul-05 10:17N 38°37' E 000°24'912.4
2014-Jul-05 09:33N 38°29' E 000°17'2813.5
2014-Jul-05 07:28N 38°06' W 000°03'1112.5
2014-Jul-05 06:33N 37°57' W 000°11'1312.8
2014-Jul-05 05:33N 37°46' W 000°20'1212.4
2014-Jul-05 04:33N 37°36' W 000°29'1212.3
2014-Jul-05 03:33N 37°27' W 000°40'1212.5
2014-Jul-05 02:33N 37°19' W 000°51'  
Track history (hours):
 
Tides and Currents Weather Stations Pressure Air Temp Water Temp Dewpoint Dewpoint Depression Visibility Wind Speed Wind Dir Waves Ship Positions

MSC Poh Lin

Last reported at 2014-Jul-09 22:29 UTC. Time now 2014-Jul-25 06:44 UTC.
Position N 35°57' W 015°31'.
Warning: this ship's position is 15 days out of date.

Length 294 m; draft 12.9 m.

Type: Ship (hazmat cat A). MMSI: 357405000.

Date/timePositionNaut miles runAvg speedWind from/ knotsBaromVisibWave heightAir tempDewpointWater temp
2014-Jul-09 22:29N 35°57' W 015°31'5317.5
2014-Jul-09 19:26N 36°16' W 014°29'23218.8
2014-Jul-09 07:08N 37°35' W 009°56'1719.4
2014-Jul-09 06:15N 37°42' W 009°37'1419.5
2014-Jul-09 05:33N 37°46' W 009°20'1918.8
2014-Jul-09 04:33N 37°53' W 008°58'7 6.6
2014-Jul-09 03:33N 37°56' W 008°51'0 0.0
2014-Jul-09 02:33N 37°56' W 008°51'0 0.0
2014-Jul-09 01:33N 37°56' W 008°51'0 0.0
2014-Jul-09 00:33N 37°56' W 008°51'0 0.0
2014-Jul-08 23:33N 37°56' W 008°51'0 0.0
2014-Jul-08 22:33N 37°56' W 008°51'0 0.0
2014-Jul-08 21:33N 37°56' W 008°51'0 0.0
2014-Jul-08 20:33N 37°56' W 008°51'0 0.0
2014-Jul-08 19:33N 37°56' W 008°51'0 0.0
2014-Jul-08 18:30N 37°56' W 008°51'0 0.0
2014-Jul-08 17:33N 37°56' W 008°51'0 0.0
2014-Jul-08 16:33N 37°56' W 008°51'0 0.0
2014-Jul-08 15:33N 37°56' W 008°51'0 0.0
2014-Jul-08 14:30N 37°56' W 008°51'0 0.0
2014-Jul-08 13:33N 37°56' W 008°51'0 0.0
2014-Jul-08 12:33N 37°56' W 008°51'0 0.4
2014-Jul-08 11:33N 37°56' W 008°50'4 3.1
2014-Jul-08 10:22N 37°52' W 008°53'7 8.5
2014-Jul-08 09:33N 37°46' W 008°55'1818.0
2014-Jul-08 08:33N 37°29' W 009°04'2020.1
2014-Jul-08 07:33N 37°11' W 009°15'2518.6
2014-Jul-08 06:13N 36°46' W 009°12'1420.9
2014-Jul-08 05:33N 36°40' W 008°57'2221.4
2014-Jul-08 04:33N 36°33' W 008°31'2521.6
2014-Jul-08 03:24N 36°25' W 008°02'12720.3
2014-Jul-07 21:08N 36°00' W 005°27'25019.9
2014-Jul-07 08:33N 37°32' W 000°37'2322.6
2014-Jul-07 07:33N 37°50' W 000°19'2822.9
2014-Jul-07 06:19N 38°13' E 000°01'2223.2
2014-Jul-07 05:21N 38°32' E 000°17'2023.3
2014-Jul-07 04:30N 38°50' E 000°27'4820.9
2014-Jul-07 02:13N 39°25' W 000°16'3 4.7
2014-Jul-07 01:33N 39°26' W 000°20'0 0.0
2014-Jul-07 00:30N 39°26' W 000°20'0 0.0
2014-Jul-06 23:33N 39°26' W 000°20'0 0.0
2014-Jul-06 22:33N 39°26' W 000°20'0 0.0
2014-Jul-06 21:33N 39°26' W 000°20'0 0.0
2014-Jul-06 20:33N 39°26' W 000°20'0 0.0
2014-Jul-06 19:33N 39°26' W 000°20'0 0.0
2014-Jul-06 18:30N 39°26' W 000°20'0 0.0
2014-Jul-06 17:12N 39°26' W 000°20'0 0.0
2014-Jul-06 16:30N 39°26' W 000°20'0 0.0
2014-Jul-06 15:33N 39°26' W 000°20'0 0.0
2014-Jul-06 14:28N 39°26' W 000°20'0 0.0
2014-Jul-06 13:32N 39°26' W 000°20'0 0.0
2014-Jul-06 12:32N 39°26' W 000°20'0 0.0
2014-Jul-06 11:32N 39°26' W 000°20'0 0.0
2014-Jul-06 10:32N 39°26' W 000°20'0 0.0
2014-Jul-06 09:32N 39°26' W 000°20'0 0.0
2014-Jul-06 08:32N 39°26' W 000°20'0 0.0
2014-Jul-06 07:26N 39°26' W 000°20'0 0.0
2014-Jul-06 06:20N 39°26' W 000°20'0 0.0
2014-Jul-06 05:32N 39°26' W 000°20'0 0.0
2014-Jul-06 04:32N 39°26' W 000°20'0 0.0
2014-Jul-06 03:32N 39°26' W 000°20'0 0.1
2014-Jul-06 02:33N 39°26' W 000°19'3 3.0
2014-Jul-06 01:33N 39°24' W 000°16'1 0.7
2014-Jul-06 00:32N 39°24' W 000°17'0 0.0
2014-Jul-05 23:26N 39°24' W 000°17'0 0.1
2014-Jul-05 21:32N 39°24' W 000°17'0 0.0
2014-Jul-05 15:33N 39°24' W 000°17'7 6.7
2014-Jul-05 14:33N 39°20' W 000°11'1312.8
2014-Jul-05 13:33N 39°10' W 000°00'1312.8
2014-Jul-05 12:33N 38°60' E 000°10'1312.6
2014-Jul-05 11:33N 38°50' E 000°21'1410.7
2014-Jul-05 10:17N 38°37' E 000°24'912.4
2014-Jul-05 09:33N 38°29' E 000°17'2813.5
2014-Jul-05 07:28N 38°06' W 000°03'1112.5
2014-Jul-05 06:33N 37°57' W 000°11'1312.8
2014-Jul-05 05:33N 37°46' W 000°20'1212.4
2014-Jul-05 04:33N 37°36' W 000°29'1212.3
2014-Jul-05 03:33N 37°27' W 000°40'1212.5
2014-Jul-05 02:33N 37°19' W 000°51'  

Dump ship's entire track history